Time;durP1;ratioP1;P1;durP2;ratioP2;P2;SDS_P1;SDS_P2;PMS_P1;PMS_P2;Temp;Humidity;BMP_temperature;BMP_pressure;BME280_temperature;BME280_humidity;BME280_pressure;Samples;Min_cycle;Max_cycle;Signal;HPM_P1;HPM_P2
2023/04/03 00:01:14;;;;;;;2.40;0.50;;;2.10;99.90;;;;;;6372770;22;20018;-85
2023/04/03 00:03:41;;;;;;;3.15;0.60;;;2.10;99.90;;;;;;6372940;22;20016;-82
2023/04/03 00:06:08;;;;;;;;;;;2.10;99.90;;;;;;6321332;22;20014;-87
2023/04/03 00:08:35;;;;;;;1.80;0.65;;;2.00;99.90;;;;;;6372764;22;20282;-86
2023/04/03 00:11:01;;;;;;;1.50;0.40;;;2.00;99.90;;;;;;6401016;22;20519;-83
2023/04/03 00:13:27;;;;;;;2.20;0.40;;;2.00;99.90;;;;;;6400671;22;20092;-84
2023/04/03 00:15:53;;;;;;;0.95;0.30;;;1.90;99.90;;;;;;6401106;22;20481;-82
2023/04/03 00:18:18;;;;;;;1.48;0.40;;;1.90;99.90;;;;;;6372944;22;20020;-87
2023/04/03 00:20:45;;;;;;;0.57;0.30;;;1.90;99.90;;;;;;6372753;22;20014;-87
2023/04/03 00:23:11;;;;;;;1.10;0.30;;;1.90;99.90;;;;;;6398567;22;20021;-85
2023/04/03 00:25:37;;;;;;;1.00;0.30;;;1.90;99.90;;;;;;6372737;22;20099;-84
2023/04/03 00:28:04;;;;;;;1.73;0.40;;;1.90;99.90;;;;;;6372685;22;20021;-83
2023/04/03 00:30:30;;;;;;;2.10;0.50;;;1.90;99.90;;;;;;6372518;22;20067;-86
2023/04/03 00:32:55;;;;;;;1.38;0.40;;;1.90;99.90;;;;;;6372788;22;20070;-84
2023/04/03 00:35:22;;;;;;;1.45;0.60;;;1.90;99.90;;;;;;6372607;22;20010;-85
2023/04/03 00:37:50;;;;;;;2.78;0.47;;;1.80;99.90;;;;;;6372605;22;20017;-87
2023/04/03 00:40:16;;;;;;;2.90;0.40;;;1.80;99.90;;;;;;6372740;22;20338;-86
2023/04/03 00:42:43;;;;;;;1.70;0.45;;;1.70;99.90;;;;;;6402277;22;20097;-83
2023/04/03 00:45:25;;;;;;;2.53;0.50;;;1.80;99.90;;;;;;6402781;22;20353;-83
2023/04/03 00:47:55;;;;;;;2.15;0.40;;;1.70;99.90;;;;;;6402818;22;20084;-82
2023/04/03 00:50:22;;;;;;;1.00;0.40;;;1.70;99.90;;;;;;6374244;22;20435;-84
2023/04/03 00:52:48;;;;;;;1.55;0.40;;;1.60;99.90;;;;;;6374219;22;20010;-87
2023/04/03 00:55:16;;;;;;;1.75;0.50;;;1.60;99.90;;;;;;6374634;22;20022;-83
2023/04/03 00:57:42;;;;;;;1.67;0.40;;;1.60;99.90;;;;;;6402591;22;20178;-84
2023/04/03 01:00:12;;;;;;;2.13;0.57;;;1.60;99.90;;;;;;6402607;22;20014;-86
2023/04/03 01:02:40;;;;;;;3.88;0.50;;;1.50;99.90;;;;;;6401849;22;20088;-88
2023/04/03 01:05:06;;;;;;;1.98;0.50;;;1.50;99.90;;;;;;6402697;22;20029;-86
2023/04/03 01:07:34;;;;;;;1.13;0.40;;;1.50;99.90;;;;;;6374454;22;20013;-86
2023/04/03 01:10:03;;;;;;;3.45;0.50;;;1.50;99.90;;;;;;6348583;22;20017;-84
2023/04/03 01:12:37;;;;;;;3.35;0.63;;;1.50;99.90;;;;;;6402972;22;20432;-83
2023/04/03 01:15:13;;;;;;;1.60;0.50;;;1.50;99.90;;;;;;6403514;22;20013;-87
2023/04/03 01:17:42;;;;;;;3.22;0.50;;;1.50;99.90;;;;;;6404844;22;20364;-86
2023/04/03 01:20:26;;;;;;;1.55;0.60;;;1.50;99.90;;;;;;6379009;22;20022;-81
2023/04/03 01:23:09;;;;;;;2.30;0.47;;;1.50;99.90;;;;;;6379374;22;20013;-85
2023/04/03 01:25:53;;;;;;;2.45;0.50;;;1.50;99.90;;;;;;6374845;22;20345;-85
2023/04/03 01:28:34;;;;;;;2.00;0.60;;;1.50;99.90;;;;;;6402357;22;20006;-86
2023/04/03 01:31:26;;;;;;;1.05;0.45;;;1.50;99.90;;;;;;6373907;22;20025;-84
2023/04/03 01:33:52;;;;;;;1.80;0.52;;;1.50;99.90;;;;;;6402480;22;20020;-89
2023/04/03 01:36:26;;;;;;;2.38;0.50;;;1.50;99.90;;;;;;6374065;22;20013;-88
2023/04/03 01:38:54;;;;;;;2.05;0.60;;;1.50;99.90;;;;;;6402236;22;20434;-86
2023/04/03 01:41:20;;;;;;;2.10;0.50;;;1.50;99.90;;;;;;6373074;22;20022;-87
2023/04/03 01:43:47;;;;;;;1.88;0.52;;;1.50;99.90;;;;;;6402176;22;20010;-85
2023/04/03 01:46:13;;;;;;;2.00;0.52;;;1.50;99.90;;;;;;6374025;22;20049;-84
2023/04/03 01:48:39;;;;;;;3.47;0.65;;;1.50;99.90;;;;;;6402426;22;20014;-84
2023/04/03 01:51:05;;;;;;;2.57;0.60;;;1.50;99.90;;;;;;6374106;22;20072;-89
2023/04/03 01:53:31;;;;;;;2.63;0.60;;;1.50;99.90;;;;;;6373328;22;20071;-86
2023/04/03 01:55:57;;;;;;;2.15;0.40;;;1.50;99.90;;;;;;6374078;22;20010;-88
2023/04/03 01:58:22;;;;;;;3.70;0.70;;;1.50;99.90;;;;;;6373932;22;20017;-88
2023/04/03 02:00:48;;;;;;;2.08;0.50;;;1.50;99.90;;;;;;6347915;22;20469;-83
2023/04/03 02:03:14;;;;;;;2.70;0.63;;;1.50;99.90;;;;;;6373782;22;20018;-87
2023/04/03 02:05:40;;;;;;;2.53;0.70;;;1.40;99.90;;;;;;6402045;22;20014;-87
2023/04/03 02:08:06;;;;;;;4.38;0.70;;;1.50;99.90;;;;;;6402082;22;20076;-85
2023/04/03 02:10:32;;;;;;;2.57;0.57;;;1.40;99.90;;;;;;6320657;22;20070;-87
2023/04/03 02:12:58;;;;;;;2.42;0.80;;;1.40;99.90;;;;;;6373668;22;20049;-83
2023/04/03 02:15:24;;;;;;;0.75;0.35;;;1.40;99.90;;;;;;6401677;22;20018;-87
2023/04/03 02:17:49;;;;;;;1.47;0.57;;;1.40;99.90;;;;;;6347430;22;20052;-84
2023/04/03 02:20:15;;;;;;;2.17;0.65;;;1.30;99.90;;;;;;6401751;22;20014;-83
2023/04/03 02:22:41;;;;;;;1.90;0.50;;;1.30;99.90;;;;;;6373629;22;20456;-83
2023/04/03 02:25:07;;;;;;;4.43;0.97;;;1.30;99.90;;;;;;6373508;22;20342;-86
2023/04/03 02:27:32;;;;;;;3.05;0.50;;;1.30;99.90;;;;;;6346144;22;20014;-85
2023/04/03 02:29:58;;;;;;;1.02;0.40;;;1.30;99.90;;;;;;6373383;22;20017;-83
2023/04/03 02:32:24;;;;;;;1.83;0.50;;;1.30;99.90;;;;;;6373712;22;20068;-85
2023/04/03 02:34:49;;;;;;;1.73;0.70;;;1.20;99.90;;;;;;6373496;22;20090;-83
2023/04/03 02:37:15;;;;;;;2.30;0.68;;;1.20;99.90;;;;;;6401733;22;20026;-86
2023/04/03 02:39:41;;;;;;;2.15;0.40;;;1.20;99.90;;;;;;6373529;22;20010;-83
2023/04/03 02:42:07;;;;;;;2.47;0.70;;;1.10;99.90;;;;;;6401351;22;20058;-86
2023/04/03 02:44:33;;;;;;;1.83;0.80;;;1.10;99.90;;;;;;6373401;22;20013;-86
2023/04/03 02:46:58;;;;;;;1.63;0.57;;;1.10;99.90;;;;;;6373528;22;20088;-84
2023/04/03 02:49:24;;;;;;;1.87;0.60;;;1.00;99.90;;;;;;6401635;22;20182;-84
2023/04/03 02:51:51;;;;;;;1.70;0.40;;;1.00;99.90;;;;;;6373213;22;20074;-83
2023/04/03 02:54:16;;;;;;;2.95;0.50;;;1.00;99.90;;;;;;6401374;22;20044;-86
2023/04/03 02:56:42;;;;;;;2.83;0.55;;;1.00;99.90;;;;;;6401744;22;20018;-86
2023/04/03 02:59:08;;;;;;;2.30;0.73;;;0.90;99.90;;;;;;6373404;22;20018;-85
2023/04/03 03:01:34;;;;;;;3.57;0.70;;;0.90;99.90;;;;;;6401685;22;20014;-84
2023/04/03 03:04:00;;;;;;;2.70;0.63;;;0.80;99.90;;;;;;6401368;22;20021;-86
2023/04/03 03:06:26;;;;;;;2.10;0.57;;;0.80;99.90;;;;;;6401358;22;20032;-87
2023/04/03 03:08:52;;;;;;;4.25;0.45;;;0.70;99.90;;;;;;6373340;22;20626;-84
2023/04/03 03:11:18;;;;;;;2.70;0.45;;;0.70;99.90;;;;;;6401176;22;20438;-83
2023/04/03 03:13:44;;;;;;;2.20;0.68;;;0.70;99.90;;;;;;6401492;22;20094;-86
2023/04/03 03:16:09;;;;;;;3.17;0.80;;;0.60;99.90;;;;;;6401437;22;20017;-87
2023/04/03 03:18:36;;;;;;;2.95;0.47;;;0.60;99.90;;;;;;6373328;22;20401;-85
2023/04/03 03:21:03;;;;;;;3.53;1.03;;;0.60;99.90;;;;;;6373196;22;20024;-85
2023/04/03 03:23:30;;;;;;;2.67;0.55;;;0.60;99.90;;;;;;6401391;22;20450;-85
2023/04/03 03:26:08;;;;;;;2.70;0.60;;;0.60;99.90;;;;;;6371924;22;20050;-85
2023/04/03 03:28:34;;;;;;;2.88;0.77;;;0.60;99.90;;;;;;6372773;22;20018;-86
2023/04/03 03:31:00;;;;;;;2.70;0.88;;;0.60;99.90;;;;;;6401162;22;20440;-86
2023/04/03 03:33:26;;;;;;;3.27;0.97;;;0.60;99.90;;;;;;6372992;22;20006;-86
2023/04/03 03:35:53;;;;;;;2.08;0.98;;;0.60;99.90;;;;;;6401510;22;20092;-85
2023/04/03 03:38:19;;;;;;;3.70;0.77;;;0.60;99.90;;;;;;6345848;22;20014;-85
2023/04/03 03:40:46;;;;;;;2.63;0.68;;;0.60;99.90;;;;;;6372927;22;20111;-83
2023/04/03 03:43:12;;;;;;;1.75;0.57;;;0.60;99.90;;;;;;6373052;22;20025;-86
2023/04/03 03:45:37;;;;;;;2.25;0.70;;;0.60;99.90;;;;;;6371583;22;20017;-85
2023/04/03 03:48:03;;;;;;;2.88;0.80;;;0.60;99.90;;;;;;6373145;22;20455;-85
2023/04/03 03:50:29;;;;;;;2.63;0.73;;;0.50;99.90;;;;;;6373163;22;20025;-83
2023/04/03 03:52:55;;;;;;;4.78;1.50;;;0.50;99.90;;;;;;6346889;22;20016;-85
2023/04/03 03:55:20;;;;;;;2.75;0.60;;;0.50;99.90;;;;;;6346349;22;20645;-87
2023/04/03 03:57:46;;;;;;;4.07;0.77;;;0.50;99.90;;;;;;6345848;22;20062;-87
2023/04/03 04:00:12;;;;;;;5.55;1.00;;;0.40;99.90;;;;;;6345957;22;20463;-83
2023/04/03 04:02:38;;;;;;;2.77;0.90;;;0.50;99.90;;;;;;6346266;22;20020;-86
2023/04/03 04:05:04;;;;;;;4.85;1.17;;;0.50;99.90;;;;;;6345732;22;20078;-86
2023/04/03 04:07:29;;;;;;;2.75;0.60;;;0.60;99.90;;;;;;6240424;22;20016;-86
2023/04/03 04:09:55;;;;;;;5.22;0.90;;;0.60;99.90;;;;;;6345855;22;20044;-85
2023/04/03 04:12:21;;;;;;;4.97;0.68;;;0.70;99.90;;;;;;6240302;23;20020;-85
2023/04/03 04:14:47;;;;;;;1.95;0.80;;;0.70;99.90;;;;;;6346164;22;20087;-84
2023/04/03 04:17:14;;;;;;;2.67;0.80;;;0.80;99.90;;;;;;6240825;23;20020;-85
2023/04/03 04:19:40;;;;;;;;;;;0.80;99.90;;;;;;6242252;22;20058;-86
2023/04/03 04:22:06;;;;;;;3.55;1.25;;;0.80;99.90;;;;;;6242651;22;19983;-85
2023/04/03 04:24:32;;;;;;;3.80;0.55;;;0.80;99.90;;;;;;6322937;22;20369;-81
2023/04/03 04:26:58;;;;;;;3.38;1.15;;;0.70;99.90;;;;;;6240869;23;20554;-85
2023/04/03 04:29:24;;;;;;;3.15;0.95;;;0.70;99.90;;;;;;6214643;23;20024;-85
2023/04/03 04:31:50;;;;;;;2.35;0.70;;;0.60;99.90;;;;;;6239904;23;20051;-85
2023/04/03 04:34:16;;;;;;;4.72;1.00;;;0.50;99.90;;;;;;6242538;23;20091;-84
2023/04/03 04:36:41;;;;;;;2.20;0.80;;;0.40;99.90;;;;;;6350603;22;20024;-81
2023/04/03 04:39:13;;;;;;;4.32;1.00;;;0.40;99.90;;;;;;6244371;22;20008;-81
2023/04/03 04:41:42;;;;;;;3.03;0.70;;;0.30;99.90;;;;;;6245840;23;20016;-82
2023/04/03 04:44:08;;;;;;;2.42;0.70;;;0.30;99.90;;;;;;6249049;23;20069;-85
2023/04/03 04:46:33;;;;;;;2.38;1.10;;;0.30;99.90;;;;;;6246453;23;20020;-88
2023/04/03 04:48:59;;;;;;;2.35;0.90;;;0.20;99.90;;;;;;6242128;23;20073;-87
2023/04/03 04:51:25;;;;;;;1.35;0.60;;;0.20;99.90;;;;;;6242143;22;20027;-84
2023/04/03 04:53:51;;;;;;;3.53;0.70;;;0.10;99.90;;;;;;6240375;23;20027;-86
2023/04/03 04:56:17;;;;;;;2.88;0.80;;;0.20;99.90;;;;;;6240639;23;20060;-89
2023/04/03 04:58:42;;;;;;;2.92;0.77;;;0.20;99.90;;;;;;6215455;23;20019;-87
2023/04/03 05:01:10;;;;;;;4.20;0.80;;;0.10;99.90;;;;;;6241988;23;20452;-85
2023/04/03 05:03:36;;;;;;;2.28;0.70;;;0.10;99.90;;;;;;6242139;22;20023;-82
2023/04/03 05:06:02;;;;;;;3.08;0.85;;;0.10;99.90;;;;;;6240439;22;20052;-85
2023/04/03 05:08:27;;;;;;;1.85;0.60;;;0.10;99.90;;;;;;6241313;23;20016;-84
2023/04/03 05:10:53;;;;;;;3.20;1.30;;;0.10;99.90;;;;;;6240693;23;20087;-88
2023/04/03 05:13:19;;;;;;;2.95;1.08;;;0.10;99.90;;;;;;6240647;23;20472;-91
2023/04/03 05:15:45;;;;;;;4.20;1.00;;;0.20;99.90;;;;;;6240728;23;20027;-87
2023/04/03 05:18:11;;;;;;;4.13;0.73;;;0.20;99.90;;;;;;6242228;22;20012;-92
2023/04/03 05:20:37;;;;;;;2.15;0.85;;;0.20;99.90;;;;;;6240889;23;20266;-88
2023/04/03 05:23:06;;;;;;;2.25;0.80;;;0.20;99.90;;;;;;6242386;23;20008;-84
2023/04/03 05:25:32;;;;;;;3.03;0.90;;;0.10;99.90;;;;;;6239316;23;20017;-87
2023/04/03 05:27:58;;;;;;;2.60;0.82;;;0.20;99.90;;;;;;6238558;23;20337;-85
2023/04/03 05:30:24;;;;;;;2.33;0.68;;;0.20;99.90;;;;;;6214285;23;20456;-88
2023/04/03 05:32:50;;;;;;;2.90;0.83;;;0.10;99.90;;;;;;6239884;23;20013;-86
2023/04/03 05:35:15;;;;;;;2.58;1.00;;;0.20;99.90;;;;;;6213380;23;20255;-87
2023/04/03 05:37:41;;;;;;;3.60;0.90;;;0.20;99.90;;;;;;6215488;22;20022;-85
2023/04/03 05:40:44;;;;;;;4.18;0.98;;;0.30;99.90;;;;;;6242128;22;20334;-86
2023/04/03 06:05:35;;;;;;;2.83;0.88;;;0.70;99.90;;;;;;6280505;22;20023;-88
2023/04/03 06:26:52;;;;;;;4.82;0.95;;;1.30;99.90;;;;;;6401350;22;20026;-84
2023/04/03 06:29:18;;;;;;;3.70;1.00;;;1.50;99.90;;;;;;6228059;22;20018;-88
2023/04/03 06:31:45;;;;;;;3.78;0.70;;;1.60;99.90;;;;;;6242329;22;20014;-91
2023/04/03 06:34:11;;;;;;;4.55;0.90;;;1.80;99.90;;;;;;6242617;22;20020;-88
2023/04/03 06:36:37;;;;;;;4.85;0.90;;;2.40;99.90;;;;;;6217467;22;20010;-89
2023/04/03 06:39:03;;;;;;;2.72;0.88;;;3.10;99.90;;;;;;6241207;22;20014;-88
2023/04/03 06:41:29;;;;;;;5.30;1.30;;;4.00;99.90;;;;;;6216576;22;20402;-90
2023/04/03 06:43:57;;;;;;;3.30;0.90;;;4.80;99.90;;;;;;6217602;22;20388;-89
2023/04/03 06:46:23;;;;;;;2.97;1.05;;;5.40;99.90;;;;;;6217592;22;20010;-90
2023/04/03 06:48:49;;;;;;;6.13;0.80;;;5.70;99.90;;;;;;6216864;22;20100;-92
2023/04/03 06:51:22;;;;;;;3.45;1.13;;;5.80;99.90;;;;;;6242503;22;20077;-88
2023/04/03 06:53:55;;;;;;;2.60;0.80;;;5.70;99.90;;;;;;6242435;22;20100;-88
2023/04/03 06:56:31;;;;;;;3.22;0.95;;;5.50;99.90;;;;;;6241850;22;20018;-87
2023/04/03 06:59:00;;;;;;;4.05;0.90;;;5.10;99.90;;;;;;6242298;22;20423;-88
2023/04/03 07:01:28;;;;;;;3.13;0.73;;;4.80;99.90;;;;;;6242316;22;20021;-91
2023/04/03 07:03:55;;;;;;;4.65;0.90;;;4.60;99.90;;;;;;6242229;22;20021;-90
2023/04/03 07:06:21;;;;;;;3.75;1.05;;;4.50;99.90;;;;;;6217101;22;20014;-91
2023/04/03 07:12:37;;;;;;;5.65;1.20;;;4.70;99.90;;;;;;6267398;22;20020;-93
2023/04/03 07:15:08;;;;;;;2.20;0.80;;;5.10;99.90;;;;;;6242710;22;20024;-92
2023/04/03 07:17:35;;;;;;;5.93;1.20;;;5.30;99.90;;;;;;6217338;22;20017;-93
2023/04/03 07:20:02;;;;;;;3.50;1.10;;;5.30;99.90;;;;;;6217659;22;20014;-93
2023/04/03 07:22:29;;;;;;;4.03;1.00;;;5.50;99.90;;;;;;6267872;22;20093;-90
2023/04/03 07:25:02;;;;;;;3.42;0.85;;;5.90;99.90;;;;;;6218353;22;20066;-90
2023/04/03 07:27:28;;;;;;;5.20;1.35;;;6.30;99.90;;;;;;6241324;22;20017;-87
2023/04/03 07:29:55;;;;;;;2.73;0.70;;;6.60;99.90;;;;;;6214125;22;20334;-93
2023/04/03 07:32:21;;;;;;;5.38;0.75;;;6.70;99.90;;;;;;6265787;22;20021;-85
2023/04/03 07:34:47;;;;;;;3.67;0.80;;;6.60;99.90;;;;;;6265452;22;20081;-86
2023/04/03 07:37:12;;;;;;;3.30;0.87;;;6.50;99.90;;;;;;6241411;22;20021;-85
2023/04/03 07:39:38;;;;;;;2.65;0.90;;;6.40;99.90;;;;;;6264868;22;20010;-85
2023/04/03 07:42:04;;;;;;;3.27;0.80;;;6.50;99.90;;;;;;6400778;22;20347;-85
2023/04/03 07:44:30;;;;;;;2.70;0.70;;;6.30;99.90;;;;;;6266695;22;20021;-85
2023/04/03 07:46:56;;;;;;;3.17;0.80;;;6.20;99.90;;;;;;6402395;22;20009;-85
2023/04/03 07:49:25;;;;;;;2.38;0.70;;;5.90;99.90;;;;;;6241773;22;20025;-90
2023/04/03 07:51:52;;;;;;;1.85;0.70;;;5.80;99.90;;;;;;6268738;22;20018;-90
2023/04/03 07:54:24;;;;;;;4.03;1.02;;;5.50;99.90;;;;;;6268406;22;20507;-85
2023/04/03 07:56:50;;;;;;;2.60;0.68;;;5.20;99.90;;;;;;6241439;22;20014;-90
2023/04/03 07:59:15;;;;;;;2.05;0.50;;;5.10;99.90;;;;;;6267634;22;20069;-90
2023/04/03 08:01:42;;;;;;;2.07;0.73;;;5.00;99.90;;;;;;6266540;22;20014;-84
2023/04/03 08:04:07;;;;;;;6.30;0.95;;;4.80;99.90;;;;;;6403460;22;20018;-90
2023/04/03 08:06:36;;;;;;;3.43;0.70;;;4.70;99.90;;;;;;6269509;22;20059;-90
2023/04/03 08:09:03;;;;;;;2.75;0.60;;;4.60;99.90;;;;;;6243888;22;20442;-90
2023/04/03 08:11:31;;;;;;;3.33;0.75;;;4.50;99.90;;;;;;6269455;22;20009;-89
2023/04/03 08:13:57;;;;;;;3.95;0.75;;;4.50;99.90;;;;;;6242899;22;20010;-87
2023/04/03 08:16:26;;;;;;;3.83;1.02;;;4.50;99.90;;;;;;6268379;22;20465;-88
2023/04/03 08:19:04;;;;;;;2.83;0.80;;;4.50;99.90;;;;;;6268239;22;20010;-87
2023/04/03 08:21:30;;;;;;;2.30;0.60;;;4.50;99.90;;;;;;6242801;22;20307;-86
2023/04/03 08:23:56;;;;;;;2.55;0.70;;;4.60;99.90;;;;;;6243186;22;20103;-88
2023/04/03 08:26:21;;;;;;;2.10;0.70;;;4.60;99.90;;;;;;6217999;22;20084;-89
2023/04/03 08:28:48;;;;;;;2.43;0.67;;;4.70;99.90;;;;;;6268552;22;20057;-94
2023/04/03 08:31:18;;;;;;;3.30;0.68;;;4.80;99.90;;;;;;6243518;22;20021;-86
2023/04/03 08:33:44;;;;;;;2.53;0.60;;;4.80;99.90;;;;;;6242034;22;20013;-84
2023/04/03 08:36:29;;;;;;;3.20;1.00;;;4.80;99.90;;;;;;6267492;22;20025;-84
2023/04/03 08:39:01;;;;;;;1.83;0.50;;;4.80;99.90;;;;;;6267216;22;20020;-83
2023/04/03 08:41:30;;;;;;;2.88;0.82;;;4.80;99.90;;;;;;6267152;22;20056;-85
2023/04/03 08:44:24;;;;;;;1.70;0.60;;;4.80;99.90;;;;;;6267029;22;20092;-84
2023/04/03 08:47:25;;;;;;;3.92;0.75;;;4.90;99.90;;;;;;6267025;22;20021;-83
2023/04/03 08:49:59;;;;;;;3.90;0.82;;;5.00;99.90;;;;;;6249363;22;20402;-85
2023/04/03 08:52:38;;;;;;;4.70;1.00;;;5.00;99.90;;;;;;6267257;22;20010;-86
2023/04/03 08:55:37;;;;;;;4.13;0.80;;;5.10;99.90;;;;;;6401551;22;20025;-85
2023/04/03 08:58:25;;;;;;;3.00;0.80;;;5.10;99.90;;;;;;6401294;22;20346;-84
2023/04/03 09:01:01;;;;;;;4.30;0.77;;;5.10;99.90;;;;;;6262916;22;20017;-85
2023/04/03 09:03:36;;;;;;;3.47;0.75;;;5.20;99.90;;;;;;6401078;22;20013;-84
2023/04/03 09:06:06;;;;;;;1.55;0.40;;;5.20;99.90;;;;;;6402215;22;20049;-80
2023/04/03 09:09:06;;;;;;;4.15;0.70;;;5.40;99.90;;;;;;6403571;22;20446;-83
2023/04/03 09:11:38;;;;;;;3.40;0.52;;;5.50;99.90;;;;;;6267932;22;20508;-84
2023/04/03 09:14:07;;;;;;;2.15;0.50;;;5.50;99.90;;;;;;6267299;22;20097;-83
2023/04/03 09:16:38;;;;;;;4.28;0.50;;;5.60;99.90;;;;;;6403392;22;20020;-85
2023/04/03 09:19:23;;;;;;;1.83;0.50;;;5.60;99.90;;;;;;6267881;22;20017;-87
2023/04/03 09:21:49;;;;;;;2.03;0.52;;;5.70;99.90;;;;;;6267197;22;20456;-83
2023/04/03 09:24:17;;;;;;;2.53;0.50;;;5.70;99.90;;;;;;6262117;22;20021;-86
2023/04/03 09:26:53;;;;;;;2.17;0.50;;;5.80;99.90;;;;;;6217175;22;20021;-83
2023/04/03 09:29:21;;;;;;;1.23;0.32;;;5.80;99.90;;;;;;6241291;22;20010;-85
2023/04/03 09:32:09;;;;;;;1.75;0.50;;;5.90;99.90;;;;;;6266459;22;20028;-83
2023/04/03 09:34:41;;;;;;;4.50;0.50;;;5.90;99.90;;;;;;6242005;22;20014;-81
2023/04/03 09:37:38;;;;;;;2.50;0.50;;;6.00;99.90;;;;;;6266772;22;20049;-85
2023/04/03 09:40:26;;;;;;;3.20;0.70;;;6.00;99.90;;;;;;6267366;22;20018;-85
2023/04/03 09:42:59;;;;;;;2.63;0.63;;;6.10;99.90;;;;;;6290423;22;20025;-86
2023/04/03 09:45:31;;;;;;;1.80;0.40;;;6.20;99.90;;;;;;6267806;22;20067;-83
2023/04/03 09:48:20;;;;;;;2.20;0.65;;;6.30;99.90;;;;;;6402832;22;20021;-88
2023/04/03 09:50:59;;;;;;;1.73;0.38;;;6.40;99.90;;;;;;6266516;22;20100;-86
2023/04/03 09:53:32;;;;;;;2.47;0.38;;;6.40;99.90;;;;;;6266620;22;20093;-86
2023/04/03 09:55:59;;;;;;;1.10;0.40;;;6.40;99.90;;;;;;6245215;22;20041;-85
2023/04/03 09:58:36;;;;;;;3.22;0.38;;;6.40;99.90;;;;;;6266327;22;20104;-86
2023/04/03 10:01:03;;;;;;;1.15;0.40;;;6.50;99.90;;;;;;6241972;22;20430;-87
2023/04/03 10:03:31;;;;;;;4.85;0.68;;;6.60;99.90;;;;;;6241381;22;20018;-86
2023/04/03 10:05:58;;;;;;;1.52;0.50;;;6.70;99.90;;;;;;6266459;22;20017;-86
2023/04/03 10:08:26;;;;;;;3.13;0.50;;;6.70;99.90;;;;;;6241074;22;20067;-89
2023/04/03 10:11:07;;;;;;;2.15;0.50;;;6.90;99.90;;;;;;6265868;22;20014;-85
2023/04/03 10:13:33;;;;;;;2.65;0.30;;;6.90;99.90;;;;;;6240737;22;20018;-88
2023/04/03 10:16:16;;;;;;;1.57;0.30;;;6.90;99.90;;;;;;6240689;22;20339;-85
2023/04/03 10:18:49;;;;;;;1.50;0.40;;;7.00;99.90;;;;;;6266027;22;20049;-85
2023/04/03 10:21:38;;;;;;;0.88;0.28;;;7.10;99.90;;;;;;6266370;22;20010;-85
2023/04/03 10:24:10;;;;;;;1.58;0.40;;;7.20;99.90;;;;;;6265761;22;20020;-89
2023/04/03 10:26:48;;;;;;;2.95;0.50;;;7.30;99.90;;;;;;6241183;22;20046;-86
2023/04/03 10:29:56;;;;;;;3.22;0.55;;;7.40;99.90;;;;;;6242048;22;20024;-87
2023/04/03 10:32:31;;;;;;;1.02;0.28;;;7.50;99.90;;;;;;6244335;22;20025;-86
2023/04/03 10:35:20;;;;;;;2.00;0.40;;;7.60;99.90;;;;;;6246930;22;20071;-86
2023/04/03 10:38:18;;;;;;;1.58;0.30;;;7.60;99.90;;;;;;6250516;22;20009;-86
2023/04/03 10:40:51;;;;;;;1.08;0.50;;;7.60;99.60;;;;;;6242021;22;20040;-85
2023/04/03 10:43:36;;;;;;;1.92;0.50;;;7.60;99.90;;;;;;6402141;22;20018;-86
2023/04/03 10:46:26;;;;;;;1.52;0.38;;;7.70;99.90;;;;;;6266020;22;20018;-86
2023/04/03 10:49:15;;;;;;;2.25;0.38;;;7.80;97.20;;;;;;6266097;22;20389;-87
2023/04/03 10:51:48;;;;;;;1.33;0.20;;;7.80;97.20;;;;;;6266002;22;20071;-86
2023/04/03 10:54:22;;;;;;;0.95;0.30;;;7.80;94.80;;;;;;6401924;22;20017;-87
2023/04/03 10:56:52;;;;;;;0.98;0.25;;;7.80;93.60;;;;;;6240929;22;20072;-87
2023/04/03 10:59:49;;;;;;;1.20;0.32;;;7.90;94.30;;;;;;6265987;22;20045;-88
2023/04/03 11:02:56;;;;;;;0.90;0.20;;;8.00;94.00;;;;;;6267183;22;20017;-87
2023/04/03 11:05:34;;;;;;;0.77;0.20;;;8.00;93.30;;;;;;6266259;22;20093;-88
2023/04/03 11:08:05;;;;;;;3.00;0.30;;;8.10;93.60;;;;;;6401867;22;20016;-88
2023/04/03 11:10:45;;;;;;;1.42;0.38;;;8.10;92.30;;;;;;6266764;22;20443;-85
2023/04/03 11:13:32;;;;;;;3.38;0.30;;;8.20;92.60;;;;;;6401534;22;20010;-88
2023/04/03 11:15:58;;;;;;;1.15;0.30;;;8.30;93.40;;;;;;6401832;22;20018;-85
2023/04/03 11:18:31;;;;;;;1.10;0.40;;;8.50;92.80;;;;;;6401831;22;20142;-87
2023/04/03 11:21:08;;;;;;;0.65;0.20;;;8.50;93.10;;;;;;6266035;22;20248;-87
2023/04/03 11:23:40;;;;;;;1.60;0.30;;;8.60;91.80;;;;;;6401875;22;20013;-85
2023/04/03 11:26:15;;;;;;;0.70;0.30;;;8.60;91.60;;;;;;6401513;22;20037;-87
2023/04/03 11:28:41;;;;;;;1.48;0.30;;;8.60;91.20;;;;;;6265626;22;20020;-89
2023/04/03 11:31:20;;;;;;;1.08;0.20;;;8.70;92.10;;;;;;6402610;22;20046;-88
2023/04/03 11:34:04;;;;;;;1.33;0.30;;;8.80;92.10;;;;;;6265986;22;20014;-90
2023/04/03 11:36:53;;;;;;;0.95;0.13;;;8.80;91.20;;;;;;6242495;22;20089;-90
2023/04/03 11:39:24;;;;;;;0.10;0.10;;;8.80;87.40;;;;;;6267116;22;20014;-89
2023/04/03 11:41:50;;;;;;;0.47;0.20;;;8.70;85.10;;;;;;6401700;22;20415;-90
2023/04/03 11:44:37;;;;;;;2.23;0.37;;;8.70;85.10;;;;;;6265836;22;20006;-88
2023/04/03 11:47:08;;;;;;;0.95;0.40;;;8.80;83.70;;;;;;6265795;22;20070;-88
2023/04/03 11:50:00;;;;;;;0.88;0.20;;;8.70;83.20;;;;;;6401486;22;20439;-88
2023/04/03 11:52:38;;;;;;;1.75;0.30;;;8.70;83.30;;;;;;6265144;22;20018;-89
2023/04/03 11:55:30;;;;;;;0.98;0.35;;;8.70;81.40;;;;;;6265731;22;20025;-87
2023/04/03 11:57:58;;;;;;;0.85;0.25;;;8.70;80.40;;;;;;6342017;22;20017;-87
2023/04/03 12:01:12;;;;;;;1.65;0.25;;;8.70;78.10;;;;;;6401728;22;20013;-88
2023/04/03 12:03:42;;;;;;;1.63;0.30;;;8.60;77.90;;;;;;6374759;22;20147;-88
2023/04/03 12:06:09;;;;;;;0.80;0.25;;;8.60;78.10;;;;;;6265941;22;20014;-89
2023/04/03 12:08:41;;;;;;;1.10;0.30;;;8.60;79.00;;;;;;6400745;22;20016;-87
2023/04/03 12:11:10;;;;;;;1.08;0.60;;;8.70;77.00;;;;;;6266022;22;20037;-94
2023/04/03 12:13:48;;;;;;;1.25;0.20;;;8.70;76.20;;;;;;6402021;22;20010;-93
2023/04/03 12:16:26;;;;;;;1.60;0.13;;;8.70;76.50;;;;;;6400431;22;20070;-91
2023/04/03 12:18:52;;;;;;;1.65;0.25;;;8.80;77.20;;;;;;6266120;22;20093;-89
2023/04/03 12:21:22;;;;;;;1.40;0.40;;;8.80;76.00;;;;;;6266211;22;20049;-89
2023/04/03 12:24:12;;;;;;;0.75;0.20;;;8.70;75.70;;;;;;6401647;22;20020;-84
2023/04/03 12:26:56;;;;;;;0.88;0.30;;;8.70;77.00;;;;;;6363965;22;20021;-84
2023/04/03 12:29:34;;;;;;;2.17;0.30;;;8.80;77.20;;;;;;6347251;22;20056;-90
2023/04/03 12:32:27;;;;;;;1.48;0.50;;;8.80;77.70;;;;;;6401800;22;20013;-86
2023/04/03 12:35:18;;;;;;;1.88;0.85;;;8.90;77.50;;;;;;6373660;22;20511;-85
2023/04/03 12:38:20;;;;;;;0.70;0.30;;;8.90;77.40;;;;;;6374094;22;20393;-85
2023/04/03 12:41:39;;;;;;;1.10;0.28;;;9.00;78.20;;;;;;6403891;22;20017;-91
2023/04/03 12:44:31;;;;;;;3.10;0.47;;;9.00;77.60;;;;;;6291418;22;20438;-86
2023/04/03 12:47:00;;;;;;;1.70;0.60;;;9.00;76.80;;;;;;6347535;22;20066;-87
2023/04/03 12:49:29;;;;;;;1.73;0.40;;;9.00;76.70;;;;;;6374985;22;20343;-87
2023/04/03 12:51:56;;;;;;;1.88;0.35;;;9.00;77.00;;;;;;6350123;22;20022;-86
2023/04/03 12:54:39;;;;;;;1.23;0.30;;;9.10;77.50;;;;;;6375205;22;20020;-86
2023/04/03 12:57:24;;;;;;;1.10;0.32;;;9.20;76.20;;;;;;6402719;22;20343;-87
2023/04/03 12:59:50;;;;;;;0.82;0.20;;;9.20;76.80;;;;;;6374855;22;20087;-87
2023/04/03 13:02:33;;;;;;;0.90;0.20;;;9.20;75.80;;;;;;6348059;22;20025;-87
2023/04/03 13:05:06;;;;;;;0.77;0.30;;;9.10;76.10;;;;;;6402819;22;20240;-87
2023/04/03 13:07:38;;;;;;;1.15;0.45;;;9.20;76.90;;;;;;6374360;22;20418;-85
2023/04/03 13:10:09;;;;;;;0.70;0.30;;;9.20;77.30;;;;;;6403242;22;20014;-87
2023/04/03 13:12:49;;;;;;;1.60;0.45;;;9.40;77.50;;;;;;6347490;22;20021;-85
2023/04/03 13:15:28;;;;;;;1.27;0.22;;;9.50;77.10;;;;;;6374833;22;20002;-85
2023/04/03 13:17:55;;;;;;;2.30;0.70;;;9.50;76.40;;;;;;6374940;22;20014;-88
2023/04/03 13:20:23;;;;;;;3.22;0.38;;;9.40;75.80;;;;;;6348511;22;20014;-88
2023/04/03 13:22:58;;;;;;;1.00;0.30;;;9.40;74.10;;;;;;6348740;22;20025;-87
2023/04/03 13:25:27;;;;;;;1.65;0.22;;;9.50;76.90;;;;;;6345457;22;20045;-89
2023/04/03 13:27:53;;;;;;;2.17;0.65;;;9.50;77.40;;;;;;6267884;22;20022;-88
2023/04/03 13:30:28;;;;;;;0.68;0.40;;;9.50;76.90;;;;;;6404073;22;20533;-90
2023/04/03 13:32:56;;;;;;;0.55;0.20;;;9.50;77.40;;;;;;6271691;22;20025;-91
2023/04/03 13:35:30;;;;;;;0.63;0.28;;;9.50;77.50;;;;;;6273255;22;20006;-89
2023/04/03 13:37:59;;;;;;;2.17;0.40;;;9.50;77.10;;;;;;6270078;22;20049;-89
2023/04/03 13:40:26;;;;;;;1.10;0.35;;;9.50;77.70;;;;;;6403361;22;20142;-91
2023/04/03 13:43:25;;;;;;;2.22;0.40;;;9.40;78.10;;;;;;6267932;22;20014;-90
2023/04/03 13:46:11;;;;;;;2.00;0.30;;;9.50;79.50;;;;;;6241671;22;20017;-90
2023/04/03 13:48:49;;;;;;;1.58;0.40;;;9.50;80.20;;;;;;6266971;22;20014;-91
2023/04/03 13:51:21;;;;;;;1.30;0.45;;;9.50;79.70;;;;;;6266875;22;20014;-89
2023/04/03 13:53:59;;;;;;;2.47;0.75;;;9.40;79.70;;;;;;6242203;22;20014;-91
2023/04/03 13:56:32;;;;;;;3.08;0.55;;;9.30;79.00;;;;;;6241943;22;20021;-89
2023/04/03 13:59:01;;;;;;;1.17;0.30;;;9.20;79.50;;;;;;6267027;22;20010;-89
2023/04/03 14:01:37;;;;;;;2.03;0.38;;;9.10;80.30;;;;;;6242273;22;20075;-89
2023/04/03 14:04:13;;;;;;;1.73;0.70;;;9.20;80.80;;;;;;6241987;22;20010;-90
2023/04/03 14:06:39;;;;;;;2.03;0.40;;;9.20;81.00;;;;;;6241960;22;20029;-89